sensor_id;sensor_type;location;lat;lon;timestamp;pressure;altitude;pressure_sealevel;temperature;humidity
71344;BME280;59146;43.850;25.948;2022-07-12T00:01:28;101198.69;;;19.27;47.63
71344;BME280;59146;43.850;25.948;2022-07-12T00:03:54;101215.53;;;19.26;48.87
71344;BME280;59146;43.850;25.948;2022-07-12T00:06:19;101186.44;;;19.05;48.27
71344;BME280;59146;43.850;25.948;2022-07-12T00:08:45;101186.97;;;18.99;49.14
71344;BME280;59146;43.850;25.948;2022-07-12T00:11:13;101197.28;;;19.02;49.03
71344;BME280;59146;43.850;25.948;2022-07-12T00:13:38;101213.94;;;19.14;48.97
71344;BME280;59146;43.850;25.948;2022-07-12T00:16:04;101270.22;;;19.47;48.92
71344;BME280;59146;43.850;25.948;2022-07-12T00:18:29;101146.75;;;18.64;48.61
71344;BME280;59146;43.850;25.948;2022-07-12T00:20:55;101123.00;;;18.42;48.92
71344;BME280;59146;43.850;25.948;2022-07-12T00:23:20;101192.50;;;18.96;48.48
71344;BME280;59146;43.850;25.948;2022-07-12T00:25:46;101236.69;;;19.16;47.74
71344;BME280;59146;43.850;25.948;2022-07-12T00:28:11;101193.66;;;19.03;48.49
71344;BME280;59146;43.850;25.948;2022-07-12T00:30:37;101160.41;;;18.48;48.81
71344;BME280;59146;43.850;25.948;2022-07-12T00:33:02;101214.47;;;18.87;48.76
71344;BME280;59146;43.850;25.948;2022-07-12T00:35:27;101182.56;;;18.68;49.64
71344;BME280;59146;43.850;25.948;2022-07-12T00:37:53;101231.25;;;18.97;48.91
71344;BME280;59146;43.850;25.948;2022-07-12T00:40:18;101234.53;;;18.89;49.20
71344;BME280;59146;43.850;25.948;2022-07-12T00:42:44;101188.63;;;18.59;49.96
71344;BME280;59146;43.850;25.948;2022-07-12T00:45:10;101218.19;;;18.64;49.58
71344;BME280;59146;43.850;25.948;2022-07-12T00:52:37;101258.47;;;18.88;50.27
71344;BME280;59146;43.850;25.948;2022-07-12T00:55:04;101282.50;;;18.96;50.42
71344;BME280;59146;43.850;25.948;2022-07-12T00:57:32;101245.19;;;18.78;49.90
71344;BME280;59146;43.850;25.948;2022-07-12T00:59:57;101207.78;;;18.51;50.54
71344;BME280;59146;43.850;25.948;2022-07-12T01:02:23;101230.47;;;18.54;50.16
71344;BME280;59146;43.850;25.948;2022-07-12T01:04:50;101266.59;;;18.75;50.85
71344;BME280;59146;43.850;25.948;2022-07-12T01:07:16;101199.25;;;18.37;51.39
71344;BME280;59146;43.850;25.948;2022-07-12T01:09:42;101222.53;;;18.54;51.36
71344;BME280;59146;43.850;25.948;2022-07-12T01:12:09;101169.44;;;18.03;50.93
71344;BME280;59146;43.850;25.948;2022-07-12T01:14:38;101207.00;;;18.17;50.71
71344;BME280;59146;43.850;25.948;2022-07-12T01:17:06;101200.91;;;18.06;50.66
71344;BME280;59146;43.850;25.948;2022-07-12T01:19:32;101065.78;;;17.12;52.29
71344;BME280;59146;43.850;25.948;2022-07-12T01:21:59;101263.56;;;18.37;51.54
71344;BME280;59146;43.850;25.948;2022-07-12T01:24:26;101205.81;;;17.99;52.73
71344;BME280;59146;43.850;25.948;2022-07-12T01:26:52;101256.03;;;18.33;52.25
71344;BME280;59146;43.850;25.948;2022-07-12T01:29:18;101210.38;;;18.08;52.79
71344;BME280;59146;43.850;25.948;2022-07-12T01:31:44;101247.25;;;18.32;52.32
71344;BME280;59146;43.850;25.948;2022-07-12T01:34:11;101276.06;;;18.57;51.66
71344;BME280;59146;43.850;25.948;2022-07-12T01:36:36;101189.53;;;17.94;52.04
71344;BME280;59146;43.850;25.948;2022-07-12T01:39:04;101282.94;;;18.49;51.94
71344;BME280;59146;43.850;25.948;2022-07-12T01:41:31;101233.31;;;18.19;52.19
71344;BME280;59146;43.850;25.948;2022-07-12T01:43:56;101263.56;;;18.37;51.65
71344;BME280;59146;43.850;25.948;2022-07-12T01:46:22;101081.28;;;17.28;52.63
71344;BME280;59146;43.850;25.948;2022-07-12T01:48:47;101136.25;;;17.56;52.23
71344;BME280;59146;43.850;25.948;2022-07-12T01:51:13;101208.25;;;17.91;51.13
71344;BME280;59146;43.850;25.948;2022-07-12T01:53:38;101203.81;;;17.92;52.25
71344;BME280;59146;43.850;25.948;2022-07-12T01:56:04;101204.66;;;17.92;53.06
71344;BME280;59146;43.850;25.948;2022-07-12T01:58:30;101178.59;;;17.77;52.41
71344;BME280;59146;43.850;25.948;2022-07-12T02:00:57;101258.19;;;18.27;51.92
71344;BME280;59146;43.850;25.948;2022-07-12T02:03:23;101275.47;;;18.43;53.06
71344;BME280;59146;43.850;25.948;2022-07-12T02:05:49;101194.44;;;17.77;53.44
71344;BME280;59146;43.850;25.948;2022-07-12T02:08:14;101246.06;;;18.14;52.23
71344;BME280;59146;43.850;25.948;2022-07-12T02:10:41;101145.25;;;17.65;52.76
71344;BME280;59146;43.850;25.948;2022-07-12T02:13:07;101237.53;;;18.10;53.02
71344;BME280;59146;43.850;25.948;2022-07-12T02:15:33;101277.41;;;18.30;52.49
71344;BME280;59146;43.850;25.948;2022-07-12T02:17:59;101286.66;;;18.35;53.41
71344;BME280;59146;43.850;25.948;2022-07-12T02:20:24;101205.66;;;17.80;53.37
71344;BME280;59146;43.850;25.948;2022-07-12T02:22:49;101208.03;;;17.83;52.86
71344;BME280;59146;43.850;25.948;2022-07-12T02:25:15;101239.97;;;17.91;53.20
71344;BME280;59146;43.850;25.948;2022-07-12T02:27:41;101142.84;;;17.17;52.91
71344;BME280;59146;43.850;25.948;2022-07-12T02:30:09;101254.50;;;17.86;52.86
71344;BME280;59146;43.850;25.948;2022-07-12T02:32:35;101244.44;;;17.69;53.65
71344;BME280;59146;43.850;25.948;2022-07-12T02:35:00;101192.16;;;17.39;53.67
71344;BME280;59146;43.850;25.948;2022-07-12T02:37:26;101237.09;;;17.72;53.41
71344;BME280;59146;43.850;25.948;2022-07-12T02:39:51;101236.50;;;17.58;53.59
71344;BME280;59146;43.850;25.948;2022-07-12T02:42:16;101100.69;;;16.83;52.89
71344;BME280;59146;43.850;25.948;2022-07-12T02:44:42;101310.63;;;18.11;53.36
71344;BME280;59146;43.850;25.948;2022-07-12T02:47:08;101206.22;;;17.39;52.82
71344;BME280;59146;43.850;25.948;2022-07-12T02:49:33;101290.31;;;17.79;54.31
71344;BME280;59146;43.850;25.948;2022-07-12T02:51:59;101258.25;;;17.61;52.85
71344;BME280;59146;43.850;25.948;2022-07-12T02:54:24;101264.72;;;17.68;52.61
71344;BME280;59146;43.850;25.948;2022-07-12T02:56:50;101280.09;;;17.74;53.71
71344;BME280;59146;43.850;25.948;2022-07-12T02:59:15;101236.94;;;17.40;52.95
71344;BME280;59146;43.850;25.948;2022-07-12T03:01:41;101294.16;;;17.86;54.18
71344;BME280;59146;43.850;25.948;2022-07-12T03:04:06;101291.88;;;18.03;52.87
71344;BME280;59146;43.850;25.948;2022-07-12T03:06:32;101186.16;;;17.15;53.26
71344;BME280;59146;43.850;25.948;2022-07-12T03:08:57;101120.13;;;16.82;53.78
71344;BME280;59146;43.850;25.948;2022-07-12T03:11:23;101182.06;;;17.33;53.36
71344;BME280;59146;43.850;25.948;2022-07-12T03:13:48;101239.03;;;17.59;54.70
71344;BME280;59146;43.850;25.948;2022-07-12T03:16:13;101241.91;;;17.56;53.53
71344;BME280;59146;43.850;25.948;2022-07-12T03:18:40;101294.97;;;18.31;51.41
71344;BME280;59146;43.850;25.948;2022-07-12T03:21:06;101271.97;;;18.42;51.59
71344;BME280;59146;43.850;25.948;2022-07-12T03:23:31;101286.28;;;19.14;50.04
71344;BME280;59146;43.850;25.948;2022-07-12T03:25:57;101325.09;;;19.87;48.65
71344;BME280;59146;43.850;25.948;2022-07-12T03:28:22;101328.34;;;20.98;46.19
71344;BME280;59146;43.850;25.948;2022-07-12T03:30:48;101292.41;;;20.85;45.74
71344;BME280;59146;43.850;25.948;2022-07-12T03:33:13;101316.66;;;21.66;44.33
71344;BME280;59146;43.850;25.948;2022-07-12T03:35:39;101175.41;;;21.88;41.31
71344;BME280;59146;43.850;25.948;2022-07-12T03:38:04;101190.72;;;22.39;39.98
71344;BME280;59146;43.850;25.948;2022-07-12T03:40:31;101335.03;;;23.66;39.40
71344;BME280;59146;43.850;25.948;2022-07-12T03:42:57;101237.19;;;23.66;37.66
71344;BME280;59146;43.850;25.948;2022-07-12T03:45:23;101334.94;;;24.43;37.24
71344;BME280;59146;43.850;25.948;2022-07-12T03:47:49;101272.56;;;24.60;36.21
71344;BME280;59146;43.850;25.948;2022-07-12T03:50:14;101298.47;;;25.80;33.78
71344;BME280;59146;43.850;25.948;2022-07-12T03:52:41;101321.34;;;25.91;34.29
71344;BME280;59146;43.850;25.948;2022-07-12T03:55:08;101288.38;;;25.90;34.23
71344;BME280;59146;43.850;25.948;2022-07-12T03:57:33;101306.75;;;26.10;33.93
71344;BME280;59146;43.850;25.948;2022-07-12T03:59:59;101324.22;;;26.59;33.23
71344;BME280;59146;43.850;25.948;2022-07-12T04:02:24;101265.28;;;25.89;33.53
71344;BME280;59146;43.850;25.948;2022-07-12T04:04:50;101260.47;;;25.77;34.20
71344;BME280;59146;43.850;25.948;2022-07-12T04:07:16;101326.34;;;26.41;33.17
71344;BME280;59146;43.850;25.948;2022-07-12T04:09:42;101283.03;;;26.60;32.91
71344;BME280;59146;43.850;25.948;2022-07-12T04:12:08;101303.00;;;27.03;31.54
71344;BME280;59146;43.850;25.948;2022-07-12T04:14:34;101308.75;;;26.69;31.78
71344;BME280;59146;43.850;25.948;2022-07-12T04:16:59;101296.97;;;27.23;30.72
71344;BME280;59146;43.850;25.948;2022-07-12T04:19:25;101280.84;;;27.09;31.59
71344;BME280;59146;43.850;25.948;2022-07-12T04:21:54;101282.69;;;26.86;31.26
71344;BME280;59146;43.850;25.948;2022-07-12T04:24:21;101273.72;;;26.79;31.37
71344;BME280;59146;43.850;25.948;2022-07-12T04:26:46;101336.97;;;27.70;30.49
71344;BME280;59146;43.850;25.948;2022-07-12T04:29:12;101329.66;;;27.79;30.35
71344;BME280;59146;43.850;25.948;2022-07-12T04:31:37;101322.16;;;28.18;30.22
71344;BME280;59146;43.850;25.948;2022-07-12T04:34:03;101305.31;;;27.66;29.91
71344;BME280;59146;43.850;25.948;2022-07-12T04:36:28;101303.91;;;26.95;31.01
71344;BME280;59146;43.850;25.948;2022-07-12T04:38:53;101346.88;;;26.48;31.93
71344;BME280;59146;43.850;25.948;2022-07-12T04:41:19;101315.75;;;27.01;32.49
71344;BME280;59146;43.850;25.948;2022-07-12T04:43:44;101321.34;;;27.36;30.66
71344;BME280;59146;43.850;25.948;2022-07-12T04:46:10;101341.25;;;28.38;29.88
71344;BME280;59146;43.850;25.948;2022-07-12T04:48:36;101342.31;;;28.43;29.12
71344;BME280;59146;43.850;25.948;2022-07-12T04:51:02;101362.25;;;28.49;29.36
71344;BME280;59146;43.850;25.948;2022-07-12T04:53:28;101322.53;;;28.80;28.50
71344;BME280;59146;43.850;25.948;2022-07-12T04:55:54;101242.94;;;27.12;30.46
71344;BME280;59146;43.850;25.948;2022-07-12T04:58:20;101311.28;;;27.38;30.70
71344;BME280;59146;43.850;25.948;2022-07-12T05:00:45;101313.28;;;26.77;31.99
71344;BME280;59146;43.850;25.948;2022-07-12T05:03:11;101324.63;;;26.48;33.21
71344;BME280;59146;43.850;25.948;2022-07-12T05:05:36;101360.09;;;26.50;33.30
71344;BME280;59146;43.850;25.948;2022-07-12T05:08:21;101357.47;;;25.95;33.96
71344;BME280;59146;43.850;25.948;2022-07-12T05:10:48;101336.28;;;25.29;34.89
71344;BME280;59146;43.850;25.948;2022-07-12T05:13:13;101315.03;;;24.95;36.21
71344;BME280;59146;43.850;25.948;2022-07-12T05:15:39;101357.81;;;25.11;36.86
71344;BME280;59146;43.850;25.948;2022-07-12T05:18:04;101368.66;;;24.94;35.79
71344;BME280;59146;43.850;25.948;2022-07-12T05:20:30;101373.16;;;24.85;35.95
71344;BME280;59146;43.850;25.948;2022-07-12T05:22:56;101361.66;;;24.51;37.03
71344;BME280;59146;43.850;25.948;2022-07-12T05:25:21;101322.47;;;24.10;38.09
71344;BME280;59146;43.850;25.948;2022-07-12T05:27:47;101332.88;;;24.21;36.87
71344;BME280;59146;43.850;25.948;2022-07-12T05:30:12;101319.22;;;24.32;36.61
71344;BME280;59146;43.850;25.948;2022-07-12T05:32:37;101363.63;;;24.91;36.43
71344;BME280;59146;43.850;25.948;2022-07-12T05:35:03;101387.25;;;25.36;35.59
71344;BME280;59146;43.850;25.948;2022-07-12T05:37:29;101338.38;;;24.69;36.89
71344;BME280;59146;43.850;25.948;2022-07-12T05:39:54;101331.84;;;24.72;37.69
71344;BME280;59146;43.850;25.948;2022-07-12T05:42:20;101354.13;;;24.46;37.45
71344;BME280;59146;43.850;25.948;2022-07-12T05:44:46;101226.75;;;23.81;37.61
71344;BME280;59146;43.850;25.948;2022-07-12T05:47:12;101395.22;;;24.87;37.61
71344;BME280;59146;43.850;25.948;2022-07-12T05:49:37;101362.28;;;24.87;37.12
71344;BME280;59146;43.850;25.948;2022-07-12T05:52:03;101328.84;;;24.67;36.78
71344;BME280;59146;43.850;25.948;2022-07-12T05:54:47;101377.38;;;24.54;38.31
71344;BME280;59146;43.850;25.948;2022-07-12T05:57:14;101343.78;;;24.43;37.69
71344;BME280;59146;43.850;25.948;2022-07-12T05:59:40;101349.66;;;25.05;36.52
71344;BME280;59146;43.850;25.948;2022-07-12T06:02:06;101370.72;;;25.32;36.71
71344;BME280;59146;43.850;25.948;2022-07-12T06:04:31;101341.28;;;25.08;36.58
71344;BME280;59146;43.850;25.948;2022-07-12T06:06:57;101376.88;;;25.33;36.50
71344;BME280;59146;43.850;25.948;2022-07-12T06:09:22;101270.47;;;24.80;36.22
71344;BME280;59146;43.850;25.948;2022-07-12T06:11:48;101365.72;;;25.53;36.67
71344;BME280;59146;43.850;25.948;2022-07-12T06:14:13;101403.81;;;25.71;36.39
71344;BME280;59146;43.850;25.948;2022-07-12T06:16:39;101356.69;;;25.38;36.52
71344;BME280;59146;43.850;25.948;2022-07-12T06:19:04;101404.00;;;25.46;37.31
71344;BME280;59146;43.850;25.948;2022-07-12T06:21:30;101273.63;;;25.07;36.54
71344;BME280;59146;43.850;25.948;2022-07-12T06:23:55;101363.38;;;25.58;36.28
71344;BME280;59146;43.850;25.948;2022-07-12T06:26:21;101359.31;;;24.98;37.25
71344;BME280;59146;43.850;25.948;2022-07-12T06:28:46;101314.56;;;24.84;37.16
71344;BME280;59146;43.850;25.948;2022-07-12T06:31:12;101333.59;;;25.37;36.18
71344;BME280;59146;43.850;25.948;2022-07-12T06:33:37;101342.69;;;26.07;35.63
71344;BME280;59146;43.850;25.948;2022-07-12T06:36:03;101364.78;;;26.17;36.07
71344;BME280;59146;43.850;25.948;2022-07-12T06:38:28;101400.06;;;26.29;34.88
71344;BME280;59146;43.850;25.948;2022-07-12T06:40:54;101344.88;;;26.12;35.14
71344;BME280;59146;43.850;25.948;2022-07-12T06:43:19;101348.44;;;26.43;34.42
71344;BME280;59146;43.850;25.948;2022-07-12T06:45:44;101258.34;;;25.64;34.48
71344;BME280;59146;43.850;25.948;2022-07-12T06:48:10;101369.25;;;26.33;35.71
71344;BME280;59146;43.850;25.948;2022-07-12T06:50:35;101374.84;;;26.54;34.96
71344;BME280;59146;43.850;25.948;2022-07-12T06:53:04;101402.63;;;26.53;36.27
71344;BME280;59146;43.850;25.948;2022-07-12T06:55:30;101339.88;;;26.00;35.41
71344;BME280;59146;43.850;25.948;2022-07-12T06:57:55;101347.41;;;27.05;33.54
71344;BME280;59146;43.850;25.948;2022-07-12T07:00:21;101357.94;;;26.84;33.72
71344;BME280;59146;43.850;25.948;2022-07-12T07:02:46;101256.03;;;26.16;34.44
71344;BME280;59146;43.850;25.948;2022-07-12T07:05:11;101385.50;;;26.62;34.77
71344;BME280;59146;43.850;25.948;2022-07-12T07:07:37;101341.66;;;26.55;34.03
71344;BME280;59146;43.850;25.948;2022-07-12T07:10:03;101253.44;;;25.84;35.10
71344;BME280;59146;43.850;25.948;2022-07-12T07:12:28;101354.72;;;26.58;34.78
71344;BME280;59146;43.850;25.948;2022-07-12T07:14:54;101392.59;;;27.16;34.41
71344;BME280;59146;43.850;25.948;2022-07-12T07:17:19;101326.00;;;26.66;34.23
71344;BME280;59146;43.850;25.948;2022-07-12T07:19:45;101401.56;;;27.23;33.66
71344;BME280;59146;43.850;25.948;2022-07-12T07:22:12;101277.25;;;26.71;33.93
71344;BME280;59146;43.850;25.948;2022-07-12T07:24:38;101337.16;;;26.86;34.18
71344;BME280;59146;43.850;25.948;2022-07-12T07:27:04;101369.44;;;27.15;33.99
71344;BME280;59146;43.850;25.948;2022-07-12T07:29:29;101369.25;;;27.17;34.18
71344;BME280;59146;43.850;25.948;2022-07-12T07:32:13;101378.16;;;27.63;33.36
71344;BME280;59146;43.850;25.948;2022-07-12T07:34:39;101367.06;;;27.43;33.55
71344;BME280;59146;43.850;25.948;2022-07-12T07:37:04;101331.13;;;27.67;33.00
71344;BME280;59146;43.850;25.948;2022-07-12T07:39:30;101346.69;;;27.71;32.66
71344;BME280;59146;43.850;25.948;2022-07-12T07:41:56;101325.09;;;27.27;33.64
71344;BME280;59146;43.850;25.948;2022-07-12T07:44:24;101324.81;;;27.45;33.31
71344;BME280;59146;43.850;25.948;2022-07-12T07:46:50;101355.06;;;27.53;33.20
71344;BME280;59146;43.850;25.948;2022-07-12T07:49:15;101404.78;;;28.01;32.60
71344;BME280;59146;43.850;25.948;2022-07-12T07:51:41;101375.00;;;27.88;33.35
71344;BME280;59146;43.850;25.948;2022-07-12T07:54:06;101361.16;;;27.99;33.00
71344;BME280;59146;43.850;25.948;2022-07-12T07:56:31;101403.28;;;28.28;32.63
71344;BME280;59146;43.850;25.948;2022-07-12T07:58:57;101356.25;;;27.51;33.09
71344;BME280;59146;43.850;25.948;2022-07-12T08:01:22;101344.22;;;27.99;32.96
71344;BME280;59146;43.850;25.948;2022-07-12T08:04:11;101352.72;;;28.46;31.55
71344;BME280;59146;43.850;25.948;2022-07-12T08:06:36;101358.75;;;28.34;31.77
71344;BME280;59146;43.850;25.948;2022-07-12T08:09:03;101342.56;;;27.98;32.64
71344;BME280;59146;43.850;25.948;2022-07-12T08:11:32;101404.97;;;28.29;31.97
71344;BME280;59146;43.850;25.948;2022-07-12T08:13:58;101347.41;;;27.80;33.16
71344;BME280;59146;43.850;25.948;2022-07-12T08:16:24;101345.47;;;27.88;32.90
71344;BME280;59146;43.850;25.948;2022-07-12T08:18:49;101389.13;;;28.63;32.13
71344;BME280;59146;43.850;25.948;2022-07-12T08:21:15;101251.97;;;28.21;30.77
71344;BME280;59146;43.850;25.948;2022-07-12T08:23:40;101349.78;;;28.77;31.63
71344;BME280;59146;43.850;25.948;2022-07-12T08:26:05;101347.19;;;29.04;30.38
71344;BME280;59146;43.850;25.948;2022-07-12T08:28:31;101332.75;;;28.70;30.72
71344;BME280;59146;43.850;25.948;2022-07-12T08:30:56;101380.69;;;28.52;31.85
71344;BME280;59146;43.850;25.948;2022-07-12T08:33:22;101377.13;;;27.78;33.30
71344;BME280;59146;43.850;25.948;2022-07-12T08:35:47;101373.44;;;27.65;32.61
71344;BME280;59146;43.850;25.948;2022-07-12T08:38:12;101361.16;;;27.47;33.37
71344;BME280;59146;43.850;25.948;2022-07-12T08:40:41;101348.75;;;27.46;33.45
71344;BME280;59146;43.850;25.948;2022-07-12T08:43:06;101346.00;;;27.54;33.57
71344;BME280;59146;43.850;25.948;2022-07-12T08:45:32;101375.84;;;27.89;32.98
71344;BME280;59146;43.850;25.948;2022-07-12T08:47:57;101337.13;;;27.54;33.50
71344;BME280;59146;43.850;25.948;2022-07-12T08:50:23;101374.44;;;27.78;32.89
71344;BME280;59146;43.850;25.948;2022-07-12T08:52:51;101373.66;;;28.07;32.27
71344;BME280;59146;43.850;25.948;2022-07-12T08:57:45;101318.97;;;27.41;31.89
71344;BME280;59146;43.850;25.948;2022-07-12T09:00:11;101244.78;;;26.74;33.88
71344;BME280;59146;43.850;25.948;2022-07-12T09:02:47;101358.22;;;27.57;33.87
71344;BME280;59146;43.850;25.948;2022-07-12T09:05:19;101359.13;;;27.49;32.21
71344;BME280;59146;43.850;25.948;2022-07-12T09:07:46;101301.31;;;26.87;33.32
71344;BME280;59146;43.850;25.948;2022-07-12T09:10:12;101351.06;;;27.12;33.38
71344;BME280;59146;43.850;25.948;2022-07-12T09:12:39;101306.66;;;26.87;34.21
71344;BME280;59146;43.850;25.948;2022-07-12T09:15:19;101335.38;;;27.61;32.31
71344;BME280;59146;43.850;25.948;2022-07-12T09:17:59;101310.13;;;27.33;33.35
71344;BME280;59146;43.850;25.948;2022-07-12T09:20:32;101341.97;;;27.59;32.50
71344;BME280;59146;43.850;25.948;2022-07-12T09:23:00;101334.63;;;27.67;32.79
71344;BME280;59146;43.850;25.948;2022-07-12T09:25:26;101312.88;;;27.47;32.59
71344;BME280;59146;43.850;25.948;2022-07-12T09:27:56;101289.94;;;27.60;32.88
71344;BME280;59146;43.850;25.948;2022-07-12T09:30:22;101339.00;;;27.83;33.21
71344;BME280;59146;43.850;25.948;2022-07-12T09:32:53;101247.59;;;27.18;33.32
71344;BME280;59146;43.850;25.948;2022-07-12T09:35:39;101345.44;;;28.11;32.00
71344;BME280;59146;43.850;25.948;2022-07-12T09:38:24;101284.88;;;27.79;32.14
71344;BME280;59146;43.850;25.948;2022-07-12T09:40:49;101326.69;;;28.17;31.38
71344;BME280;59146;43.850;25.948;2022-07-12T09:43:16;101315.47;;;28.43;32.12
71344;BME280;59146;43.850;25.948;2022-07-12T09:45:42;101275.22;;;28.14;31.74
71344;BME280;59146;43.850;25.948;2022-07-12T09:48:09;101293.66;;;28.17;32.19
71344;BME280;59146;43.850;25.948;2022-07-12T09:50:38;101293.66;;;28.17;31.25
71344;BME280;59146;43.850;25.948;2022-07-12T09:53:03;101273.91;;;28.24;30.97
71344;BME280;59146;43.850;25.948;2022-07-12T09:55:33;101293.19;;;28.49;30.18
71344;BME280;59146;43.850;25.948;2022-07-12T09:58:01;101245.28;;;28.32;29.95
71344;BME280;59146;43.850;25.948;2022-07-12T10:00:29;101282.28;;;28.51;31.45
71344;BME280;59146;43.850;25.948;2022-07-12T10:02:55;101282.28;;;28.86;29.65
71344;BME280;59146;43.850;25.948;2022-07-12T10:05:24;101265.59;;;28.97;30.33
71344;BME280;59146;43.850;25.948;2022-07-12T10:07:50;101256.06;;;28.95;29.32
71344;BME280;59146;43.850;25.948;2022-07-12T10:10:19;101301.78;;;29.16;29.34
71344;BME280;59146;43.850;25.948;2022-07-12T10:12:45;101231.69;;;28.96;29.27
71344;BME280;59146;43.850;25.948;2022-07-12T10:15:19;101307.16;;;28.95;29.08
71344;BME280;59146;43.850;25.948;2022-07-12T10:17:54;101284.38;;;28.34;30.31
71344;BME280;59146;43.850;25.948;2022-07-12T10:20:23;101248.09;;;27.80;30.71
71344;BME280;59146;43.850;25.948;2022-07-12T10:22:53;101234.78;;;27.42;30.98
71344;BME280;59146;43.850;25.948;2022-07-12T10:25:36;101291.66;;;27.38;32.07
71344;BME280;59146;43.850;25.948;2022-07-12T10:28:02;101300.25;;;27.33;32.24
71344;BME280;59146;43.850;25.948;2022-07-12T10:30:29;101309.53;;;27.45;31.61
71344;BME280;59146;43.850;25.948;2022-07-12T10:32:56;101253.78;;;27.18;31.25
71344;BME280;59146;43.850;25.948;2022-07-12T10:35:25;101277.81;;;27.64;30.05
71344;BME280;59146;43.850;25.948;2022-07-12T10:40:39;101299.25;;;28.37;28.93
71344;BME280;59146;43.850;25.948;2022-07-12T10:45:35;101235.97;;;27.69;29.34
71344;BME280;59146;43.850;25.948;2022-07-12T10:48:05;101281.56;;;28.42;28.34
71344;BME280;59146;43.850;25.948;2022-07-12T10:58:38;101208.56;;;28.81;27.46
71344;BME280;59146;43.850;25.948;2022-07-12T11:01:09;101233.94;;;29.21;27.26
71344;BME280;59146;43.850;25.948;2022-07-12T11:03:49;101286.56;;;29.78;26.15
71344;BME280;59146;43.850;25.948;2022-07-12T11:06:17;101264.59;;;29.81;27.20
71344;BME280;59146;43.850;25.948;2022-07-12T11:09:03;101220.34;;;29.29;27.26
71344;BME280;59146;43.850;25.948;2022-07-12T11:11:55;101288.03;;;29.53;26.29
71344;BME280;59146;43.850;25.948;2022-07-12T11:16:51;101259.28;;;29.33;26.03
71344;BME280;59146;43.850;25.948;2022-07-12T11:19:25;101258.84;;;29.29;26.29
71344;BME280;59146;43.850;25.948;2022-07-12T11:21:52;101243.44;;;29.17;27.15
71344;BME280;59146;43.850;25.948;2022-07-12T11:24:22;101286.56;;;29.78;26.46
71344;BME280;59146;43.850;25.948;2022-07-12T11:26:48;101282.38;;;29.76;26.51
71344;BME280;59146;43.850;25.948;2022-07-12T11:29:14;101265.59;;;29.46;26.16
71344;BME280;59146;43.850;25.948;2022-07-12T11:31:40;101190.16;;;29.33;26.26
71344;BME280;59146;43.850;25.948;2022-07-12T11:34:05;101262.44;;;30.11;25.26
71344;BME280;59146;43.850;25.948;2022-07-12T11:36:32;101272.53;;;29.96;25.10
71344;BME280;59146;43.850;25.948;2022-07-12T11:38:59;101235.66;;;29.97;25.02
71344;BME280;59146;43.850;25.948;2022-07-12T11:41:25;101221.94;;;29.78;24.57
71344;BME280;59146;43.850;25.948;2022-07-12T11:43:51;101230.44;;;29.54;25.21
71344;BME280;59146;43.850;25.948;2022-07-12T11:46:17;101231.00;;;29.43;25.58
71344;BME280;59146;43.850;25.948;2022-07-12T11:48:43;101206.66;;;29.58;24.97
71344;BME280;59146;43.850;25.948;2022-07-12T11:51:11;101253.38;;;29.44;26.28
71344;BME280;59146;43.850;25.948;2022-07-12T11:53:38;101218.78;;;29.13;26.91
71344;BME280;59146;43.850;25.948;2022-07-12T11:56:05;101244.81;;;29.34;26.73
71344;BME280;59146;43.850;25.948;2022-07-12T11:58:31;101226.38;;;29.09;25.31
71344;BME280;59146;43.850;25.948;2022-07-12T12:01:10;101211.91;;;28.83;26.09
71344;BME280;59146;43.850;25.948;2022-07-12T12:03:44;101225.34;;;29.32;24.95
71344;BME280;59146;43.850;25.948;2022-07-12T12:06:10;101228.91;;;29.39;26.33
71344;BME280;59146;43.850;25.948;2022-07-12T12:08:35;101215.25;;;29.13;25.74
71344;BME280;59146;43.850;25.948;2022-07-12T12:11:01;101209.91;;;28.91;26.78
71344;BME280;59146;43.850;25.948;2022-07-12T12:13:28;101242.44;;;28.96;27.34
71344;BME280;59146;43.850;25.948;2022-07-12T12:15:56;101234.44;;;28.82;26.82
71344;BME280;59146;43.850;25.948;2022-07-12T12:18:33;101238.19;;;28.45;26.49
71344;BME280;59146;43.850;25.948;2022-07-12T12:21:04;101209.97;;;27.99;27.22
71344;BME280;59146;43.850;25.948;2022-07-12T12:23:30;101218.63;;;28.15;28.47
71344;BME280;59146;43.850;25.948;2022-07-12T12:26:18;101262.16;;;28.25;28.13
71344;BME280;59146;43.850;25.948;2022-07-12T12:28:50;101235.34;;;28.11;27.27
71344;BME280;59146;43.850;25.948;2022-07-12T12:31:17;101235.16;;;27.98;28.03
71344;BME280;59146;43.850;25.948;2022-07-12T12:33:45;101239.34;;;28.57;26.46
71344;BME280;59146;43.850;25.948;2022-07-12T12:36:24;101258.03;;;29.07;25.24
71344;BME280;59146;43.850;25.948;2022-07-12T12:38:54;101219.59;;;28.86;26.70
71344;BME280;59146;43.850;25.948;2022-07-12T12:41:29;101216.19;;;28.77;25.28
71344;BME280;59146;43.850;25.948;2022-07-12T12:44:02;101216.72;;;29.43;25.06
71344;BME280;59146;43.850;25.948;2022-07-12T12:46:48;101186.41;;;30.09;24.16
71344;BME280;59146;43.850;25.948;2022-07-12T12:49:18;101197.09;;;30.63;23.36
71344;BME280;59146;43.850;25.948;2022-07-12T12:51:57;101166.19;;;30.33;22.14
71344;BME280;59146;43.850;25.948;2022-07-12T12:54:33;101170.09;;;30.30;23.50
71344;BME280;59146;43.850;25.948;2022-07-12T12:56:59;101196.03;;;30.38;23.39
71344;BME280;59146;43.850;25.948;2022-07-12T12:59:24;101232.28;;;30.35;23.36
71344;BME280;59146;43.850;25.948;2022-07-12T13:01:50;101193.38;;;29.91;24.14
71344;BME280;59146;43.850;25.948;2022-07-12T13:04:15;101237.84;;;29.46;25.12